sensor_id;sensor_type;location;lat;lon;timestamp;P1;durP1;ratioP1;P2;durP2;ratioP2
289;SDS011;13193;48.874;9.086;2022-08-01T00:00:28;5.27;;;3.37;;
289;SDS011;13193;48.874;9.086;2022-08-01T00:02:56;3.30;;;2.40;;
289;SDS011;13193;48.874;9.086;2022-08-01T00:05:24;5.97;;;3.00;;
289;SDS011;13193;48.874;9.086;2022-08-01T00:07:50;4.90;;;2.53;;
289;SDS011;13193;48.874;9.086;2022-08-01T00:10:23;6.20;;;2.67;;
289;SDS011;13193;48.874;9.086;2022-08-01T00:12:53;4.53;;;2.50;;
289;SDS011;13193;48.874;9.086;2022-08-01T00:15:19;13.00;;;3.93;;
289;SDS011;13193;48.874;9.086;2022-08-01T00:17:47;5.33;;;2.30;;
289;SDS011;13193;48.874;9.086;2022-08-01T00:20:20;5.80;;;2.53;;
289;SDS011;13193;48.874;9.086;2022-08-01T00:22:50;3.40;;;2.50;;
289;SDS011;13193;48.874;9.086;2022-08-01T00:25:20;4.63;;;2.30;;
289;SDS011;13193;48.874;9.086;2022-08-01T00:27:48;4.67;;;2.60;;
289;SDS011;13193;48.874;9.086;2022-08-01T00:30:19;5.77;;;2.90;;
289;SDS011;13193;48.874;9.086;2022-08-01T00:32:45;6.53;;;3.03;;
289;SDS011;13193;48.874;9.086;2022-08-01T00:35:10;4.27;;;2.20;;
289;SDS011;13193;48.874;9.086;2022-08-01T00:37:39;4.07;;;2.57;;
289;SDS011;13193;48.874;9.086;2022-08-01T00:40:09;5.73;;;2.17;;
289;SDS011;13193;48.874;9.086;2022-08-01T00:42:35;3.87;;;2.30;;
289;SDS011;13193;48.874;9.086;2022-08-01T00:45:06;4.00;;;2.73;;
289;SDS011;13193;48.874;9.086;2022-08-01T00:47:35;4.33;;;2.63;;
289;SDS011;13193;48.874;9.086;2022-08-01T00:50:00;5.90;;;3.50;;
289;SDS011;13193;48.874;9.086;2022-08-01T00:52:37;8.70;;;2.83;;
289;SDS011;13193;48.874;9.086;2022-08-01T00:55:08;5.00;;;2.73;;
289;SDS011;13193;48.874;9.086;2022-08-01T00:57:46;6.73;;;3.00;;
289;SDS011;13193;48.874;9.086;2022-08-01T01:00:15;5.93;;;3.10;;
289;SDS011;13193;48.874;9.086;2022-08-01T01:02:47;10.40;;;3.60;;
289;SDS011;13193;48.874;9.086;2022-08-01T01:05:15;4.63;;;2.93;;
289;SDS011;13193;48.874;9.086;2022-08-01T01:08:01;6.50;;;2.80;;
289;SDS011;13193;48.874;9.086;2022-08-01T01:10:34;7.03;;;3.03;;
289;SDS011;13193;48.874;9.086;2022-08-01T01:13:23;6.37;;;3.70;;
289;SDS011;13193;48.874;9.086;2022-08-01T01:16:02;4.10;;;2.43;;
289;SDS011;13193;48.874;9.086;2022-08-01T01:27:17;5.00;;;3.40;;
289;SDS011;13193;48.874;9.086;2022-08-01T01:29:52;4.50;;;3.17;;
289;SDS011;13193;48.874;9.086;2022-08-01T01:32:39;4.00;;;2.87;;
289;SDS011;13193;48.874;9.086;2022-08-01T01:35:19;6.13;;;2.90;;
289;SDS011;13193;48.874;9.086;2022-08-01T01:37:58;5.20;;;2.63;;
289;SDS011;13193;48.874;9.086;2022-08-01T01:40:38;6.43;;;2.87;;
289;SDS011;13193;48.874;9.086;2022-08-01T01:43:06;4.80;;;2.90;;
289;SDS011;13193;48.874;9.086;2022-08-01T01:45:36;4.87;;;2.73;;
289;SDS011;13193;48.874;9.086;2022-08-01T01:48:04;5.77;;;3.07;;
289;SDS011;13193;48.874;9.086;2022-08-01T01:50:32;4.33;;;2.60;;
289;SDS011;13193;48.874;9.086;2022-08-01T01:53:00;9.27;;;2.70;;
289;SDS011;13193;48.874;9.086;2022-08-01T01:55:30;3.30;;;2.40;;
289;SDS011;13193;48.874;9.086;2022-08-01T01:57:56;6.47;;;3.20;;
289;SDS011;13193;48.874;9.086;2022-08-01T02:00:23;7.00;;;3.23;;
289;SDS011;13193;48.874;9.086;2022-08-01T02:02:52;7.93;;;3.10;;
289;SDS011;13193;48.874;9.086;2022-08-01T02:05:20;4.97;;;3.20;;
289;SDS011;13193;48.874;9.086;2022-08-01T02:07:47;5.07;;;2.53;;
289;SDS011;13193;48.874;9.086;2022-08-01T02:10:14;4.20;;;2.73;;
289;SDS011;13193;48.874;9.086;2022-08-01T02:12:42;5.03;;;2.63;;
289;SDS011;13193;48.874;9.086;2022-08-01T02:15:11;4.33;;;2.67;;
289;SDS011;13193;48.874;9.086;2022-08-01T02:17:40;4.43;;;2.93;;
289;SDS011;13193;48.874;9.086;2022-08-01T02:20:08;6.83;;;2.80;;
289;SDS011;13193;48.874;9.086;2022-08-01T02:22:51;3.53;;;2.23;;
289;SDS011;13193;48.874;9.086;2022-08-01T02:25:25;5.83;;;3.30;;
289;SDS011;13193;48.874;9.086;2022-08-01T02:30:59;4.30;;;2.50;;
289;SDS011;13193;48.874;9.086;2022-08-01T02:33:39;4.10;;;2.70;;
289;SDS011;13193;48.874;9.086;2022-08-01T02:36:07;4.80;;;2.37;;
289;SDS011;13193;48.874;9.086;2022-08-01T02:38:35;6.00;;;2.77;;
289;SDS011;13193;48.874;9.086;2022-08-01T02:41:07;5.87;;;2.60;;
289;SDS011;13193;48.874;9.086;2022-08-01T02:43:38;5.67;;;3.70;;
289;SDS011;13193;48.874;9.086;2022-08-01T02:46:08;9.13;;;3.00;;
289;SDS011;13193;48.874;9.086;2022-08-01T02:48:44;5.73;;;3.40;;
289;SDS011;13193;48.874;9.086;2022-08-01T02:51:12;4.43;;;2.83;;
289;SDS011;13193;48.874;9.086;2022-08-01T02:53:41;6.27;;;2.83;;
289;SDS011;13193;48.874;9.086;2022-08-01T02:56:10;6.97;;;3.00;;
289;SDS011;13193;48.874;9.086;2022-08-01T02:58:38;4.70;;;3.03;;
289;SDS011;13193;48.874;9.086;2022-08-01T03:01:05;6.63;;;3.37;;
289;SDS011;13193;48.874;9.086;2022-08-01T03:03:32;11.03;;;3.20;;
289;SDS011;13193;48.874;9.086;2022-08-01T03:05:59;5.00;;;2.90;;
289;SDS011;13193;48.874;9.086;2022-08-01T03:08:26;10.00;;;3.70;;
289;SDS011;13193;48.874;9.086;2022-08-01T03:10:57;5.60;;;2.80;;
289;SDS011;13193;48.874;9.086;2022-08-01T03:13:26;5.80;;;3.33;;
289;SDS011;13193;48.874;9.086;2022-08-01T03:15:53;4.83;;;3.03;;
289;SDS011;13193;48.874;9.086;2022-08-01T03:18:20;5.30;;;2.60;;
289;SDS011;13193;48.874;9.086;2022-08-01T03:20:49;8.40;;;3.57;;
289;SDS011;13193;48.874;9.086;2022-08-01T03:23:17;5.57;;;3.13;;
289;SDS011;13193;48.874;9.086;2022-08-01T03:25:45;5.30;;;3.27;;
289;SDS011;13193;48.874;9.086;2022-08-01T03:28:13;4.87;;;2.87;;
289;SDS011;13193;48.874;9.086;2022-08-01T03:30:41;5.30;;;3.10;;
289;SDS011;13193;48.874;9.086;2022-08-01T03:33:08;6.83;;;3.10;;
289;SDS011;13193;48.874;9.086;2022-08-01T03:35:36;4.67;;;2.87;;
289;SDS011;13193;48.874;9.086;2022-08-01T03:38:05;6.60;;;3.27;;
289;SDS011;13193;48.874;9.086;2022-08-01T03:40:43;6.80;;;3.50;;
289;SDS011;13193;48.874;9.086;2022-08-01T03:43:19;8.30;;;3.50;;
289;SDS011;13193;48.874;9.086;2022-08-01T03:46:07;7.00;;;3.70;;
289;SDS011;13193;48.874;9.086;2022-08-01T03:48:39;6.40;;;3.13;;
289;SDS011;13193;48.874;9.086;2022-08-01T03:51:07;4.43;;;3.20;;
289;SDS011;13193;48.874;9.086;2022-08-01T03:53:34;8.63;;;3.97;;
289;SDS011;13193;48.874;9.086;2022-08-01T03:56:03;6.30;;;3.70;;
289;SDS011;13193;48.874;9.086;2022-08-01T03:58:33;5.50;;;3.30;;
289;SDS011;13193;48.874;9.086;2022-08-01T04:01:00;4.27;;;3.10;;
289;SDS011;13193;48.874;9.086;2022-08-01T04:03:26;7.57;;;3.00;;
289;SDS011;13193;48.874;9.086;2022-08-01T04:05:52;5.03;;;2.87;;
289;SDS011;13193;48.874;9.086;2022-08-01T04:08:20;4.17;;;3.20;;
289;SDS011;13193;48.874;9.086;2022-08-01T04:10:46;5.30;;;2.90;;
289;SDS011;13193;48.874;9.086;2022-08-01T04:13:11;3.73;;;2.97;;
289;SDS011;13193;48.874;9.086;2022-08-01T04:15:37;4.40;;;2.73;;
289;SDS011;13193;48.874;9.086;2022-08-01T04:18:03;5.20;;;3.20;;
289;SDS011;13193;48.874;9.086;2022-08-01T04:20:29;7.10;;;3.47;;
289;SDS011;13193;48.874;9.086;2022-08-01T04:22:54;7.43;;;3.73;;
289;SDS011;13193;48.874;9.086;2022-08-01T04:25:25;5.77;;;2.60;;
289;SDS011;13193;48.874;9.086;2022-08-01T04:27:54;7.47;;;2.73;;
289;SDS011;13193;48.874;9.086;2022-08-01T04:30:29;6.77;;;2.87;;
289;SDS011;13193;48.874;9.086;2022-08-01T04:32:59;6.00;;;2.90;;
289;SDS011;13193;48.874;9.086;2022-08-01T04:35:26;5.47;;;3.93;;
289;SDS011;13193;48.874;9.086;2022-08-01T04:37:52;4.80;;;2.60;;
289;SDS011;13193;48.874;9.086;2022-08-01T04:40:22;4.33;;;2.67;;
289;SDS011;13193;48.874;9.086;2022-08-01T04:42:49;6.63;;;2.80;;
289;SDS011;13193;48.874;9.086;2022-08-01T04:45:15;6.80;;;2.90;;
289;SDS011;13193;48.874;9.086;2022-08-01T04:47:42;8.73;;;2.97;;
289;SDS011;13193;48.874;9.086;2022-08-01T04:50:08;2.77;;;1.90;;
289;SDS011;13193;48.874;9.086;2022-08-01T04:52:35;15.37;;;2.70;;
289;SDS011;13193;48.874;9.086;2022-08-01T04:55:02;7.00;;;2.53;;
289;SDS011;13193;48.874;9.086;2022-08-01T04:57:31;3.97;;;2.70;;
289;SDS011;13193;48.874;9.086;2022-08-01T04:59:59;10.33;;;2.67;;
289;SDS011;13193;48.874;9.086;2022-08-01T05:02:27;4.13;;;2.67;;
289;SDS011;13193;48.874;9.086;2022-08-01T05:04:54;5.33;;;3.10;;
289;SDS011;13193;48.874;9.086;2022-08-01T05:07:22;8.83;;;2.93;;
289;SDS011;13193;48.874;9.086;2022-08-01T05:09:48;5.90;;;2.23;;
289;SDS011;13193;48.874;9.086;2022-08-01T05:12:13;6.90;;;3.33;;
289;SDS011;13193;48.874;9.086;2022-08-01T05:14:39;11.50;;;2.37;;
289;SDS011;13193;48.874;9.086;2022-08-01T05:17:05;10.83;;;2.40;;
289;SDS011;13193;48.874;9.086;2022-08-01T05:19:33;9.10;;;2.70;;
289;SDS011;13193;48.874;9.086;2022-08-01T05:22:02;4.30;;;2.40;;
289;SDS011;13193;48.874;9.086;2022-08-01T05:24:36;6.73;;;2.90;;
289;SDS011;13193;48.874;9.086;2022-08-01T05:27:09;8.63;;;2.60;;
289;SDS011;13193;48.874;9.086;2022-08-01T05:29:40;3.33;;;1.87;;
289;SDS011;13193;48.874;9.086;2022-08-01T05:32:18;4.10;;;2.70;;
289;SDS011;13193;48.874;9.086;2022-08-01T05:34:48;9.10;;;2.57;;
289;SDS011;13193;48.874;9.086;2022-08-01T05:37:16;5.10;;;2.90;;
289;SDS011;13193;48.874;9.086;2022-08-01T05:39:44;8.40;;;2.73;;
289;SDS011;13193;48.874;9.086;2022-08-01T05:42:13;6.40;;;2.27;;
289;SDS011;13193;48.874;9.086;2022-08-01T05:44:39;4.73;;;2.67;;
289;SDS011;13193;48.874;9.086;2022-08-01T05:47:04;6.67;;;2.60;;
289;SDS011;13193;48.874;9.086;2022-08-01T05:49:36;9.53;;;2.50;;
289;SDS011;13193;48.874;9.086;2022-08-01T05:52:02;8.97;;;2.77;;
289;SDS011;13193;48.874;9.086;2022-08-01T05:54:35;6.30;;;2.50;;
289;SDS011;13193;48.874;9.086;2022-08-01T05:57:06;6.53;;;2.50;;
289;SDS011;13193;48.874;9.086;2022-08-01T05:59:37;16.17;;;2.43;;
289;SDS011;13193;48.874;9.086;2022-08-01T06:02:15;5.67;;;2.40;;
289;SDS011;13193;48.874;9.086;2022-08-01T06:04:43;9.73;;;2.83;;
289;SDS011;13193;48.874;9.086;2022-08-01T06:07:09;8.80;;;2.60;;
289;SDS011;13193;48.874;9.086;2022-08-01T06:09:35;4.27;;;1.77;;
289;SDS011;13193;48.874;9.086;2022-08-01T06:12:01;7.90;;;2.00;;
289;SDS011;13193;48.874;9.086;2022-08-01T06:14:29;5.40;;;1.50;;
289;SDS011;13193;48.874;9.086;2022-08-01T06:17:00;9.70;;;2.20;;
289;SDS011;13193;48.874;9.086;2022-08-01T06:19:28;8.23;;;2.37;;
289;SDS011;13193;48.874;9.086;2022-08-01T06:22:00;10.37;;;2.40;;
289;SDS011;13193;48.874;9.086;2022-08-01T06:24:31;4.70;;;2.40;;
289;SDS011;13193;48.874;9.086;2022-08-01T06:26:57;7.07;;;2.13;;
289;SDS011;13193;48.874;9.086;2022-08-01T06:29:23;3.47;;;1.90;;
289;SDS011;13193;48.874;9.086;2022-08-01T06:31:57;11.80;;;2.30;;
289;SDS011;13193;48.874;9.086;2022-08-01T06:34:23;2.90;;;1.90;;
289;SDS011;13193;48.874;9.086;2022-08-01T06:36:48;4.30;;;1.43;;
289;SDS011;13193;48.874;9.086;2022-08-01T06:39:14;2.90;;;1.63;;
289;SDS011;13193;48.874;9.086;2022-08-01T06:41:42;1.93;;;1.37;;
289;SDS011;13193;48.874;9.086;2022-08-01T06:44:11;3.30;;;1.47;;
289;SDS011;13193;48.874;9.086;2022-08-01T06:46:42;3.20;;;1.50;;
289;SDS011;13193;48.874;9.086;2022-08-01T06:49:11;2.40;;;1.23;;
289;SDS011;13193;48.874;9.086;2022-08-01T06:51:36;8.00;;;2.07;;
289;SDS011;13193;48.874;9.086;2022-08-01T06:54:04;2.40;;;1.60;;
289;SDS011;13193;48.874;9.086;2022-08-01T06:56:30;2.80;;;1.30;;
289;SDS011;13193;48.874;9.086;2022-08-01T06:58:56;2.70;;;1.40;;
289;SDS011;13193;48.874;9.086;2022-08-01T07:01:26;2.03;;;1.40;;
289;SDS011;13193;48.874;9.086;2022-08-01T07:03:59;3.60;;;1.60;;
289;SDS011;13193;48.874;9.086;2022-08-01T07:06:25;3.80;;;1.60;;
289;SDS011;13193;48.874;9.086;2022-08-01T07:08:52;4.20;;;1.90;;
289;SDS011;13193;48.874;9.086;2022-08-01T07:11:18;1.97;;;1.40;;
289;SDS011;13193;48.874;9.086;2022-08-01T07:13:44;2.53;;;1.33;;
289;SDS011;13193;48.874;9.086;2022-08-01T07:16:10;5.00;;;1.53;;
289;SDS011;13193;48.874;9.086;2022-08-01T07:18:39;2.70;;;1.50;;
289;SDS011;13193;48.874;9.086;2022-08-01T07:21:05;5.00;;;1.67;;
289;SDS011;13193;48.874;9.086;2022-08-01T07:23:35;2.30;;;1.53;;
289;SDS011;13193;48.874;9.086;2022-08-01T07:26:00;3.53;;;1.10;;
289;SDS011;13193;48.874;9.086;2022-08-01T07:28:28;7.17;;;1.50;;
289;SDS011;13193;48.874;9.086;2022-08-01T07:30:54;6.07;;;2.13;;
289;SDS011;13193;48.874;9.086;2022-08-01T07:33:20;3.20;;;1.10;;
289;SDS011;13193;48.874;9.086;2022-08-01T07:35:47;2.10;;;1.60;;
289;SDS011;13193;48.874;9.086;2022-08-01T07:38:15;4.30;;;1.73;;
289;SDS011;13193;48.874;9.086;2022-08-01T07:40:46;7.63;;;1.87;;
289;SDS011;13193;48.874;9.086;2022-08-01T07:43:12;4.87;;;1.90;;
289;SDS011;13193;48.874;9.086;2022-08-01T07:45:38;6.13;;;1.87;;
289;SDS011;13193;48.874;9.086;2022-08-01T07:48:06;7.60;;;1.83;;
289;SDS011;13193;48.874;9.086;2022-08-01T07:50:32;5.73;;;2.10;;
289;SDS011;13193;48.874;9.086;2022-08-01T07:52:58;2.60;;;1.50;;
289;SDS011;13193;48.874;9.086;2022-08-01T07:55:25;3.30;;;1.60;;
289;SDS011;13193;48.874;9.086;2022-08-01T07:57:51;4.23;;;1.73;;
289;SDS011;13193;48.874;9.086;2022-08-01T08:00:19;2.00;;;1.30;;
289;SDS011;13193;48.874;9.086;2022-08-01T08:02:44;2.60;;;1.60;;
289;SDS011;13193;48.874;9.086;2022-08-01T08:05:11;5.20;;;2.17;;
289;SDS011;13193;48.874;9.086;2022-08-01T08:07:37;5.87;;;2.63;;
289;SDS011;13193;48.874;9.086;2022-08-01T08:10:03;6.93;;;2.27;;
289;SDS011;13193;48.874;9.086;2022-08-01T08:12:30;4.90;;;2.33;;
289;SDS011;13193;48.874;9.086;2022-08-01T08:14:56;9.00;;;2.27;;
289;SDS011;13193;48.874;9.086;2022-08-01T08:17:25;16.00;;;3.00;;
289;SDS011;13193;48.874;9.086;2022-08-01T08:19:51;3.40;;;1.57;;
289;SDS011;13193;48.874;9.086;2022-08-01T08:22:16;4.93;;;2.00;;
289;SDS011;13193;48.874;9.086;2022-08-01T08:24:42;8.60;;;2.53;;
289;SDS011;13193;48.874;9.086;2022-08-01T08:27:09;11.63;;;2.43;;
289;SDS011;13193;48.874;9.086;2022-08-01T08:29:34;3.83;;;1.90;;
289;SDS011;13193;48.874;9.086;2022-08-01T08:32:00;5.23;;;2.20;;
289;SDS011;13193;48.874;9.086;2022-08-01T08:34:26;3.57;;;1.53;;
289;SDS011;13193;48.874;9.086;2022-08-01T08:43:03;4.23;;;1.63;;
289;SDS011;13193;48.874;9.086;2022-08-01T08:45:30;3.10;;;2.03;;
289;SDS011;13193;48.874;9.086;2022-08-01T08:47:57;4.87;;;2.30;;
289;SDS011;13193;48.874;9.086;2022-08-01T08:50:23;5.00;;;2.90;;
289;SDS011;13193;48.874;9.086;2022-08-01T08:52:54;3.80;;;2.53;;
289;SDS011;13193;48.874;9.086;2022-08-01T08:55:21;6.77;;;2.10;;
289;SDS011;13193;48.874;9.086;2022-08-01T08:57:48;6.83;;;2.67;;
289;SDS011;13193;48.874;9.086;2022-08-01T09:00:14;7.07;;;2.70;;
289;SDS011;13193;48.874;9.086;2022-08-01T09:02:43;9.53;;;3.33;;
289;SDS011;13193;48.874;9.086;2022-08-01T09:08:37;6.60;;;2.93;;
289;SDS011;13193;48.874;9.086;2022-08-01T09:11:03;5.93;;;2.43;;
289;SDS011;13193;48.874;9.086;2022-08-01T09:13:29;6.60;;;3.07;;
289;SDS011;13193;48.874;9.086;2022-08-01T09:15:55;5.40;;;3.33;;
289;SDS011;13193;48.874;9.086;2022-08-01T09:23:36;10.17;;;4.20;;
289;SDS011;13193;48.874;9.086;2022-08-01T09:26:08;5.00;;;3.90;;
289;SDS011;13193;48.874;9.086;2022-08-01T09:28:34;8.10;;;3.63;;
289;SDS011;13193;48.874;9.086;2022-08-01T09:31:05;6.30;;;3.60;;
289;SDS011;13193;48.874;9.086;2022-08-01T09:36:19;6.43;;;3.30;;
289;SDS011;13193;48.874;9.086;2022-08-01T09:38:52;5.23;;;3.00;;
289;SDS011;13193;48.874;9.086;2022-08-01T09:41:29;6.17;;;3.10;;
289;SDS011;13193;48.874;9.086;2022-08-01T09:44:01;5.90;;;2.73;;
289;SDS011;13193;48.874;9.086;2022-08-01T09:46:26;8.40;;;2.87;;
289;SDS011;13193;48.874;9.086;2022-08-01T09:48:56;14.20;;;3.90;;
289;SDS011;13193;48.874;9.086;2022-08-01T09:51:38;8.00;;;3.60;;
289;SDS011;13193;48.874;9.086;2022-08-01T09:54:05;3.60;;;2.80;;
289;SDS011;13193;48.874;9.086;2022-08-01T09:59:04;4.30;;;2.50;;
289;SDS011;13193;48.874;9.086;2022-08-01T10:01:44;5.67;;;2.87;;
289;SDS011;13193;48.874;9.086;2022-08-01T10:06:38;4.47;;;2.43;;
289;SDS011;13193;48.874;9.086;2022-08-01T10:09:07;6.80;;;2.60;;
289;SDS011;13193;48.874;9.086;2022-08-01T10:11:33;3.93;;;2.20;;
289;SDS011;13193;48.874;9.086;2022-08-01T10:14:03;5.73;;;2.43;;
289;SDS011;13193;48.874;9.086;2022-08-01T10:16:30;2.30;;;1.50;;
289;SDS011;13193;48.874;9.086;2022-08-01T10:18:58;2.33;;;1.80;;
289;SDS011;13193;48.874;9.086;2022-08-01T10:21:26;3.70;;;2.60;;
289;SDS011;13193;48.874;9.086;2022-08-01T10:23:53;4.33;;;3.00;;
289;SDS011;13193;48.874;9.086;2022-08-01T10:26:21;3.83;;;2.13;;
289;SDS011;13193;48.874;9.086;2022-08-01T10:28:50;5.80;;;2.73;;
289;SDS011;13193;48.874;9.086;2022-08-01T10:31:17;2.40;;;1.47;;
289;SDS011;13193;48.874;9.086;2022-08-01T10:33:44;5.83;;;1.77;;
289;SDS011;13193;48.874;9.086;2022-08-01T10:36:10;9.73;;;2.50;;
289;SDS011;13193;48.874;9.086;2022-08-01T10:38:36;2.83;;;2.00;;
289;SDS011;13193;48.874;9.086;2022-08-01T10:41:03;4.93;;;1.97;;
289;SDS011;13193;48.874;9.086;2022-08-01T10:43:29;17.13;;;3.40;;
289;SDS011;13193;48.874;9.086;2022-08-01T10:45:55;2.97;;;2.13;;
289;SDS011;13193;48.874;9.086;2022-08-01T10:48:26;4.30;;;2.13;;
289;SDS011;13193;48.874;9.086;2022-08-01T10:50:55;4.97;;;1.97;;
289;SDS011;13193;48.874;9.086;2022-08-01T10:53:25;3.40;;;1.90;;
289;SDS011;13193;48.874;9.086;2022-08-01T10:56:01;2.97;;;2.00;;
289;SDS011;13193;48.874;9.086;2022-08-01T11:01:23;3.87;;;2.60;;
289;SDS011;13193;48.874;9.086;2022-08-01T11:06:28;6.37;;;3.37;;
289;SDS011;13193;48.874;9.086;2022-08-01T11:11:59;4.77;;;3.10;;
289;SDS011;13193;48.874;9.086;2022-08-01T11:14:34;4.67;;;2.63;;
289;SDS011;13193;48.874;9.086;2022-08-01T11:17:42;6.03;;;2.80;;
289;SDS011;13193;48.874;9.086;2022-08-01T11:20:32;5.27;;;3.33;;
289;SDS011;13193;48.874;9.086;2022-08-01T11:30:45;4.23;;;2.30;;
289;SDS011;13193;48.874;9.086;2022-08-01T11:38:36;5.60;;;2.67;;
289;SDS011;13193;48.874;9.086;2022-08-01T11:44:09;4.20;;;2.93;;
289;SDS011;13193;48.874;9.086;2022-08-01T11:52:13;4.67;;;2.90;;
289;SDS011;13193;48.874;9.086;2022-08-01T11:54:52;5.60;;;2.23;;
289;SDS011;13193;48.874;9.086;2022-08-01T11:57:21;3.83;;;2.90;;
289;SDS011;13193;48.874;9.086;2022-08-01T12:00:00;7.63;;;2.67;;
289;SDS011;13193;48.874;9.086;2022-08-01T12:02:34;5.10;;;1.97;;
289;SDS011;13193;48.874;9.086;2022-08-01T12:05:01;3.13;;;2.33;;
289;SDS011;13193;48.874;9.086;2022-08-01T12:07:30;3.10;;;2.40;;
289;SDS011;13193;48.874;9.086;2022-08-01T12:10:01;11.47;;;2.97;;
289;SDS011;13193;48.874;9.086;2022-08-01T12:12:28;4.57;;;2.80;;
289;SDS011;13193;48.874;9.086;2022-08-01T12:14:56;5.37;;;2.43;;
289;SDS011;13193;48.874;9.086;2022-08-01T12:17:31;5.37;;;2.10;;
289;SDS011;13193;48.874;9.086;2022-08-01T12:19:58;3.00;;;2.10;;
289;SDS011;13193;48.874;9.086;2022-08-01T12:22:24;8.20;;;2.30;;
289;SDS011;13193;48.874;9.086;2022-08-01T12:24:51;3.10;;;2.03;;
289;SDS011;13193;48.874;9.086;2022-08-01T12:27:24;5.43;;;2.30;;
289;SDS011;13193;48.874;9.086;2022-08-01T12:29:54;8.57;;;2.30;;
289;SDS011;13193;48.874;9.086;2022-08-01T12:32:23;4.10;;;2.37;;
289;SDS011;13193;48.874;9.086;2022-08-01T12:34:49;4.30;;;1.70;;
289;SDS011;13193;48.874;9.086;2022-08-01T12:37:16;4.30;;;2.30;;
289;SDS011;13193;48.874;9.086;2022-08-01T12:39:43;8.20;;;3.00;;
289;SDS011;13193;48.874;9.086;2022-08-01T12:42:09;2.83;;;1.97;;
289;SDS011;13193;48.874;9.086;2022-08-01T12:44:36;4.47;;;2.40;;
289;SDS011;13193;48.874;9.086;2022-08-01T12:47:06;3.57;;;2.47;;
289;SDS011;13193;48.874;9.086;2022-08-01T12:49:32;9.30;;;2.63;;
289;SDS011;13193;48.874;9.086;2022-08-01T12:52:02;4.67;;;2.37;;
289;SDS011;13193;48.874;9.086;2022-08-01T12:54:28;3.33;;;2.17;;
289;SDS011;13193;48.874;9.086;2022-08-01T12:56:54;5.27;;;2.90;;
289;SDS011;13193;48.874;9.086;2022-08-01T12:59:24;4.53;;;2.40;;
289;SDS011;13193;48.874;9.086;2022-08-01T13:01:52;4.20;;;2.70;;
289;SDS011;13193;48.874;9.086;2022-08-01T13:04:19;4.07;;;2.20;;
289;SDS011;13193;48.874;9.086;2022-08-01T13:06:46;5.53;;;2.10;;
289;SDS011;13193;48.874;9.086;2022-08-01T13:09:13;4.20;;;1.97;;
289;SDS011;13193;48.874;9.086;2022-08-01T13:11:40;6.10;;;2.10;;
289;SDS011;13193;48.874;9.086;2022-08-01T13:14:06;8.17;;;2.10;;
289;SDS011;13193;48.874;9.086;2022-08-01T13:16:32;4.00;;;1.80;;
289;SDS011;13193;48.874;9.086;2022-08-01T13:19:11;2.93;;;1.77;;
289;SDS011;13193;48.874;9.086;2022-08-01T13:21:37;7.40;;;1.60;;
289;SDS011;13193;48.874;9.086;2022-08-01T13:24:07;12.70;;;2.20;;
289;SDS011;13193;48.874;9.086;2022-08-01T13:26:38;2.70;;;1.60;;
289;SDS011;13193;48.874;9.086;2022-08-01T13:29:19;5.90;;;1.93;;
289;SDS011;13193;48.874;9.086;2022-08-01T13:31:47;3.60;;;1.80;;
289;SDS011;13193;48.874;9.086;2022-08-01T13:34:13;2.73;;;1.90;;
289;SDS011;13193;48.874;9.086;2022-08-01T13:36:40;5.43;;;1.83;;
289;SDS011;13193;48.874;9.086;2022-08-01T13:39:06;4.43;;;2.00;;
289;SDS011;13193;48.874;9.086;2022-08-01T13:41:50;6.77;;;2.50;;
289;SDS011;13193;48.874;9.086;2022-08-01T13:44:17;3.73;;;1.57;;
289;SDS011;13193;48.874;9.086;2022-08-01T13:46:43;4.33;;;1.53;;
289;SDS011;13193;48.874;9.086;2022-08-01T13:49:10;4.30;;;2.57;;
289;SDS011;13193;48.874;9.086;2022-08-01T13:51:37;3.60;;;2.20;;
289;SDS011;13193;48.874;9.086;2022-08-01T13:54:03;3.73;;;2.20;;
289;SDS011;13193;48.874;9.086;2022-08-01T13:56:29;5.23;;;2.27;;
289;SDS011;13193;48.874;9.086;2022-08-01T13:58:55;4.30;;;1.97;;
289;SDS011;13193;48.874;9.086;2022-08-01T14:01:22;6.13;;;2.40;;
289;SDS011;13193;48.874;9.086;2022-08-01T14:03:48;3.80;;;2.30;;
289;SDS011;13193;48.874;9.086;2022-08-01T14:06:15;2.50;;;1.90;;
289;SDS011;13193;48.874;9.086;2022-08-01T14:08:42;5.13;;;2.20;;
289;SDS011;13193;48.874;9.086;2022-08-01T14:11:08;4.23;;;2.07;;
289;SDS011;13193;48.874;9.086;2022-08-01T14:13:34;2.87;;;1.63;;
289;SDS011;13193;48.874;9.086;2022-08-01T14:16:03;3.60;;;1.80;;
289;SDS011;13193;48.874;9.086;2022-08-01T14:18:29;3.37;;;1.87;;
289;SDS011;13193;48.874;9.086;2022-08-01T14:20:55;2.83;;;2.10;;
289;SDS011;13193;48.874;9.086;2022-08-01T14:23:23;3.40;;;1.90;;
289;SDS011;13193;48.874;9.086;2022-08-01T14:25:51;11.70;;;2.27;;
289;SDS011;13193;48.874;9.086;2022-08-01T14:28:16;4.13;;;2.27;;
289;SDS011;13193;48.874;9.086;2022-08-01T14:30:43;4.10;;;1.70;;
289;SDS011;13193;48.874;9.086;2022-08-01T14:33:09;3.20;;;1.57;;
289;SDS011;13193;48.874;9.086;2022-08-01T14:35:36;2.57;;;1.57;;
289;SDS011;13193;48.874;9.086;2022-08-01T14:38:01;3.00;;;1.83;;
289;SDS011;13193;48.874;9.086;2022-08-01T14:40:27;2.50;;;1.77;;
289;SDS011;13193;48.874;9.086;2022-08-01T14:42:53;3.83;;;1.80;;
289;SDS011;13193;48.874;9.086;2022-08-01T14:45:19;3.43;;;2.10;;
289;SDS011;13193;48.874;9.086;2022-08-01T14:47:45;3.57;;;1.43;;
289;SDS011;13193;48.874;9.086;2022-08-01T14:50:14;2.33;;;1.60;;
289;SDS011;13193;48.874;9.086;2022-08-01T14:52:41;3.93;;;1.70;;
289;SDS011;13193;48.874;9.086;2022-08-01T14:55:07;3.40;;;1.87;;
289;SDS011;13193;48.874;9.086;2022-08-01T14:57:34;6.10;;;1.60;;
289;SDS011;13193;48.874;9.086;2022-08-01T15:00:00;5.13;;;1.83;;
289;SDS011;13193;48.874;9.086;2022-08-01T15:02:26;6.50;;;1.73;;
289;SDS011;13193;48.874;9.086;2022-08-01T15:04:51;2.70;;;1.70;;
289;SDS011;13193;48.874;9.086;2022-08-01T15:07:18;4.60;;;1.60;;
289;SDS011;13193;48.874;9.086;2022-08-01T15:09:44;5.30;;;1.67;;
289;SDS011;13193;48.874;9.086;2022-08-01T15:12:10;5.10;;;1.67;;
289;SDS011;13193;48.874;9.086;2022-08-01T15:14:39;3.27;;;1.90;;
289;SDS011;13193;48.874;9.086;2022-08-01T15:17:24;6.20;;;1.30;;
289;SDS011;13193;48.874;9.086;2022-08-01T15:19:54;2.63;;;1.50;;
289;SDS011;13193;48.874;9.086;2022-08-01T15:22:21;3.10;;;1.77;;
289;SDS011;13193;48.874;9.086;2022-08-01T15:24:48;3.33;;;2.10;;
289;SDS011;13193;48.874;9.086;2022-08-01T15:27:17;4.13;;;1.57;;
289;SDS011;13193;48.874;9.086;2022-08-01T15:29:45;5.30;;;1.80;;
289;SDS011;13193;48.874;9.086;2022-08-01T15:32:11;5.03;;;1.50;;
289;SDS011;13193;48.874;9.086;2022-08-01T15:34:37;2.00;;;1.43;;
289;SDS011;13193;48.874;9.086;2022-08-01T15:37:04;4.40;;;1.47;;
289;SDS011;13193;48.874;9.086;2022-08-01T15:39:31;5.10;;;1.80;;
289;SDS011;13193;48.874;9.086;2022-08-01T15:42:11;2.93;;;1.60;;
289;SDS011;13193;48.874;9.086;2022-08-01T15:44:41;4.23;;;1.47;;
289;SDS011;13193;48.874;9.086;2022-08-01T15:47:07;3.57;;;1.57;;
289;SDS011;13193;48.874;9.086;2022-08-01T15:49:34;4.67;;;1.83;;
289;SDS011;13193;48.874;9.086;2022-08-01T15:52:03;2.50;;;1.37;;
289;SDS011;13193;48.874;9.086;2022-08-01T15:54:30;2.77;;;1.50;;
289;SDS011;13193;48.874;9.086;2022-08-01T15:56:57;2.50;;;1.63;;
289;SDS011;13193;48.874;9.086;2022-08-01T15:59:22;3.40;;;1.50;;
289;SDS011;13193;48.874;9.086;2022-08-01T16:01:48;2.30;;;1.40;;
289;SDS011;13193;48.874;9.086;2022-08-01T16:04:14;3.33;;;1.27;;
289;SDS011;13193;48.874;9.086;2022-08-01T16:06:40;3.20;;;1.70;;
289;SDS011;13193;48.874;9.086;2022-08-01T16:09:08;2.20;;;1.20;;
289;SDS011;13193;48.874;9.086;2022-08-01T16:11:33;3.27;;;1.47;;
289;SDS011;13193;48.874;9.086;2022-08-01T16:13:59;3.73;;;1.23;;
289;SDS011;13193;48.874;9.086;2022-08-01T16:16:25;4.10;;;1.50;;
289;SDS011;13193;48.874;9.086;2022-08-01T16:18:51;3.70;;;1.37;;
289;SDS011;13193;48.874;9.086;2022-08-01T16:21:20;2.07;;;1.30;;
289;SDS011;13193;48.874;9.086;2022-08-01T16:23:48;4.33;;;1.37;;
289;SDS011;13193;48.874;9.086;2022-08-01T16:26:14;1.90;;;1.17;;
289;SDS011;13193;48.874;9.086;2022-08-01T16:28:40;3.23;;;1.10;;